Time;durP1;ratioP1;P1;durP2;ratioP2;P2;SDS_P1;SDS_P2;PMS_P1;PMS_P2;Temp;Humidity;BMP_temperature;BMP_pressure;BME280_temperature;BME280_humidity;BME280_pressure;Samples;Min_cycle;Max_cycle;Signal;HPM_P1;HPM_P2
2021/06/22 06:08:19;;;;;;;;;11.50;11.50;;;;;19.14;68.77;100942.38;5351358;23;46420;-80
2021/06/22 06:10:44;;;;;;;;;12.25;10.50;;;;;19.15;68.61;100946.72;4942062;28;45804;-81
2021/06/22 06:13:10;;;;;;;;;12.50;12.50;;;;;19.20;69.04;100947.31;4940153;28;45364;-80
2021/06/22 06:15:36;;;;;;;;;9.50;9.50;;;;;19.26;68.94;100951.38;4942170;28;45452;-83
2021/06/22 06:18:02;;;;;;;;;12.00;12.00;;;;;19.31;68.80;100954.59;4934838;28;45191;-81
2021/06/22 06:20:28;;;;;;;;;12.25;11.00;;;;;19.32;68.72;100957.16;4942570;28;45166;-80
2021/06/22 06:22:54;;;;;;;;;11.00;10.25;;;;;19.33;68.75;100958.00;4940874;28;46105;-83
2021/06/22 06:25:20;;;;;;;;;15.00;13.50;;;;;19.28;68.49;100955.66;4940315;28;45532;-84
2021/06/22 06:27:51;;;;;;;;;12.75;10.25;;;;;19.28;68.70;100961.00;4941782;28;45301;-85
2021/06/22 06:30:26;;;;;;;;;12.50;11.00;;;;;19.29;69.15;100967.16;4939585;28;45266;-82
2021/06/22 06:32:53;;;;;;;;;14.00;11.75;;;;;19.32;68.98;100965.16;4941956;28;45342;-83
2021/06/22 06:35:20;;;;;;;;;12.25;10.00;;;;;19.36;68.69;100967.63;4940780;28;45278;-83
2021/06/22 06:37:46;;;;;;;;;12.75;9.75;;;;;19.38;69.02;100969.22;4942046;28;45401;-83
2021/06/22 06:40:12;;;;;;;;;12.75;11.25;;;;;19.43;68.73;100964.41;4940540;28;47074;-82
2021/06/22 06:42:38;;;;;;;;;17.00;14.00;;;;;19.42;68.31;100964.53;4941569;28;46582;-83
2021/06/22 06:45:06;;;;;;;;;14.25;10.50;;;;;19.41;68.80;100962.84;4940636;28;45749;-82
2021/06/22 06:47:31;;;;;;;;;9.75;9.75;;;;;19.34;68.91;100963.22;4942248;28;45290;-82
2021/06/22 06:49:57;;;;;;;;;13.00;11.50;;;;;19.36;68.98;100972.94;4941812;28;45262;-82
2021/06/22 06:52:22;;;;;;;;;14.75;13.50;;;;;19.40;68.87;100979.78;4939430;28;47214;-82
2021/06/22 06:54:48;;;;;;;;;11.00;10.75;;;;;19.40;68.66;100971.78;4939618;28;45240;-82
2021/06/22 06:57:13;;;;;;;;;13.50;11.75;;;;;19.41;68.95;100981.50;4942119;28;45222;-82
2021/06/22 06:59:38;;;;;;;;;11.75;10.00;;;;;19.45;69.03;100986.50;4941493;28;45414;-79
2021/06/22 07:02:04;;;;;;;;;16.25;15.00;;;;;19.47;68.41;100977.53;4941469;28;46274;-80
2021/06/22 07:04:29;;;;;;;;;14.50;13.00;;;;;19.48;69.00;100990.78;4939465;28;45369;-80
2021/06/22 07:06:55;;;;;;;;;12.75;11.50;;;;;19.50;68.92;100982.66;4939517;28;45580;-80
2021/06/22 07:09:21;;;;;;;;;17.75;12.50;;;;;19.52;68.88;100992.28;4938635;28;46927;-81
2021/06/22 07:11:46;;;;;;;;;20.50;15.00;;;;;19.48;68.89;100995.25;4940051;28;47027;-81
2021/06/22 07:14:14;;;;;;;;;15.50;14.50;;;;;19.46;68.75;100998.00;4940794;28;45415;-80
2021/06/22 07:16:41;;;;;;;;;13.50;13.00;;;;;19.48;69.04;100990.78;4939951;28;45420;-82
2021/06/22 07:19:06;;;;;;;;;16.25;12.50;;;;;19.49;69.33;100997.81;4940126;28;46100;-80
2021/06/22 07:21:32;;;;;;;;;15.00;13.00;;;;;19.52;68.71;100991.41;4940179;28;48085;-80
2021/06/22 07:23:57;;;;;;;;;16.00;14.00;;;;;19.51;68.88;100990.56;4940474;28;45298;-80
2021/06/22 07:26:23;;;;;;;;;17.75;14.50;;;;;19.49;68.80;100989.81;4941405;28;45453;-80
2021/06/22 07:28:48;;;;;;;;;12.75;12.75;;;;;19.52;69.39;100994.06;4941443;28;45454;-80
2021/06/22 07:31:13;;;;;;;;;12.75;10.75;;;;;19.54;69.29;100998.34;4940300;28;46397;-79
2021/06/22 07:33:39;;;;;;;;;14.00;12.25;;;;;19.56;68.95;100983.09;4939801;28;45459;-80
2021/06/22 07:36:07;;;;;;;;;16.00;11.50;;;;;19.59;69.10;100991.84;4940260;28;45282;-80
2021/06/22 07:38:32;;;;;;;;;19.50;12.75;;;;;19.63;69.25;100988.03;4939361;28;46498;-80
2021/06/22 07:40:58;;;;;;;;;14.50;12.50;;;;;19.66;68.76;100979.81;4939985;28;47439;-80
2021/06/22 07:43:23;;;;;;;;;17.25;12.50;;;;;19.71;68.81;100990.16;4940771;28;45374;-80
2021/06/22 07:45:49;;;;;;;;;14.75;13.75;;;;;19.74;68.57;100984.63;4939885;28;45241;-80
2021/06/22 07:48:14;;;;;;;;;13.25;12.75;;;;;19.78;68.92;100978.97;4940698;28;45436;-80
2021/06/22 07:50:40;;;;;;;;;15.00;12.50;;;;;19.86;68.85;100977.59;4940689;28;46288;-80
2021/06/22 07:53:05;;;;;;;;;14.50;12.50;;;;;19.96;68.89;100980.47;4940715;28;45365;-81
2021/06/22 07:55:31;;;;;;;;;13.25;11.25;;;;;20.06;68.94;100980.69;4938985;28;45259;-82
2021/06/22 07:57:56;;;;;;;;;10.00;10.00;;;;;20.17;68.85;100990.66;4938750;28;45664;-81
2021/06/22 08:00:44;;;;;;;;;13.25;13.00;;;;;20.24;68.88;100987.44;4940431;28;46475;-81
2021/06/22 08:03:15;;;;;;;;;12.25;11.50;;;;;20.33;67.94;100999.28;4938348;28;45472;-81
2021/06/22 08:05:42;;;;;;;;;14.50;12.50;;;;;20.35;67.22;101002.69;4939263;28;45365;-81
2021/06/22 08:08:12;;;;;;;;;11.00;9.50;;;;;20.33;67.64;100999.28;4940308;28;45259;-82
2021/06/22 08:10:39;;;;;;;;;10.25;9.50;;;;;20.31;67.62;101011.03;4940638;28;45426;-80
2021/06/22 08:13:04;;;;;;;;;21.75;16.25;;;;;20.31;67.86;101011.03;4939253;28;46728;-80
2021/06/22 08:15:32;;;;;;;;;21.00;21.00;;;;;20.25;67.89;101009.63;4940036;28;45778;-80
2021/06/22 08:17:57;;;;;;;;;29.00;25.75;;;;;20.15;67.47;101006.75;4939730;28;45424;-80
2021/06/22 08:20:23;;;;;;;;;30.25;25.75;;;;;20.09;67.62;101009.81;4938731;28;46265;-80
2021/06/22 08:22:53;;;;;;;;;30.25;28.25;;;;;20.03;68.18;101019.09;4939717;28;45294;-80
2021/06/22 08:25:21;;;;;;;;;25.75;23.25;;;;;19.98;68.14;101024.75;4939147;28;46078;-81
2021/06/22 08:27:47;;;;;;;;;27.50;24.00;;;;;19.93;68.20;101018.88;4931389;28;45451;-81
2021/06/22 08:30:13;;;;;;;;;27.50;27.50;;;;;19.86;68.60;101018.44;4939049;28;47255;-81
2021/06/22 08:32:38;;;;;;;;;24.25;21.00;;;;;19.79;68.25;101027.81;4939146;28;45488;-81
2021/06/22 08:35:04;;;;;;;;;25.75;23.25;;;;;19.71;68.71;101025.69;4940646;28;45326;-81
2021/06/22 08:37:30;;;;;;;;;28.25;26.25;;;;;19.66;68.84;101017.13;4939492;28;45501;-80
2021/06/22 08:39:55;;;;;;;;;19.50;18.75;;;;;19.68;69.36;101020.53;4940535;28;46151;-80
2021/06/22 08:42:23;;;;;;;;;19.00;17.25;;;;;19.75;69.80;101021.88;4941552;28;45341;-80
2021/06/22 08:44:49;;;;;;;;;24.75;23.75;;;;;19.78;69.81;101021.63;4944031;28;45307;-81
2021/06/22 08:47:21;;;;;;;;;24.75;24.25;;;;;19.78;70.08;101018.97;4943397;28;45255;-81
2021/06/22 08:49:48;;;;;;;;;19.25;17.75;;;;;19.77;69.79;101022.59;4949463;28;47482;-81
2021/06/22 08:52:14;;;;;;;;;20.00;18.50;;;;;19.75;69.35;101021.88;4938367;28;45437;-81
2021/06/22 08:54:39;;;;;;;;;20.00;19.00;;;;;19.76;69.67;101026.22;4942298;28;45454;-80
2021/06/22 08:57:05;;;;;;;;;21.25;18.25;;;;;19.78;69.46;101032.31;4938451;28;47253;-81
2021/06/22 08:59:30;;;;;;;;;17.50;17.50;;;;;19.81;69.24;101025.91;4932761;28;48489;-80
2021/06/22 09:01:56;;;;;;;;;14.25;13.75;;;;;19.76;69.18;101028.88;4937340;28;45515;-81
2021/06/22 09:04:21;;;;;;;;;17.00;17.00;;;;;19.77;69.22;101024.41;4939955;28;45676;-81
2021/06/22 09:06:47;;;;;;;;;17.75;16.00;;;;;19.77;69.09;101027.94;4942200;28;46106;-80
2021/06/22 09:09:12;;;;;;;;;13.75;13.75;;;;;19.82;69.31;101026.75;4938837;28;46569;-82
2021/06/22 09:11:38;;;;;;;;;18.50;15.25;;;;;19.88;69.42;101024.53;4940432;28;46909;-83
2021/06/22 09:14:06;;;;;;;;;15.00;13.50;;;;;19.97;69.10;101023.06;4941751;28;45425;-80
2021/06/22 09:16:33;;;;;;;;;18.50;18.00;;;;;20.09;69.57;101023.16;4941497;28;46282;-80
2021/06/22 09:19:04;;;;;;;;;21.25;18.00;;;;;20.17;69.16;101020.84;4943037;28;45353;-80
2021/06/22 09:21:41;;;;;;;;;17.50;17.25;;;;;20.25;68.61;101022.97;4942884;28;45573;-80
2021/06/22 09:24:16;;;;;;;;;18.25;15.75;;;;;20.28;68.96;101030.75;4941302;28;45384;-80
2021/06/22 09:26:44;;;;;;;;;16.50;15.25;;;;;20.30;68.59;101025.31;4940778;28;45889;-83
2021/06/22 09:29:13;;;;;;;;;24.50;17.75;;;;;20.38;68.76;101030.97;4941983;28;45342;-82
2021/06/22 09:31:51;;;;;;;;;20.50;17.50;;;;;20.49;68.43;101024.88;4942606;28;45717;-86
2021/06/22 09:34:19;;;;;;;;;26.50;20.75;;;;;20.59;67.88;101025.09;4938484;28;45437;-87
2021/06/22 09:36:56;;;;;;;;;17.75;17.25;;;;;20.63;67.19;101037.25;4940389;28;46690;-85
2021/06/22 09:39:24;;;;;;;;;20.50;17.50;;;;;20.55;67.05;101028.91;4939072;28;47460;-85
2021/06/22 09:41:52;;;;;;;;;22.25;18.75;;;;;20.49;67.28;101026.69;4941140;28;45968;-86
2021/06/22 09:44:29;;;;;;;;;23.25;20.50;;;;;20.35;67.16;101013.34;4941113;28;45581;-84
2021/06/22 09:47:00;;;;;;;;;22.00;19.25;;;;;20.23;67.79;101025.75;4942491;28;45474;-86
2021/06/22 09:49:30;;;;;;;;;25.50;24.00;;;;;20.15;67.88;101019.25;4930521;28;46317;-85
2021/06/22 09:52:08;;;;;;;;;19.75;17.75;;;;;20.17;67.96;101034.19;4932975;28;45399;-85
2021/06/22 09:54:44;;;;;;;;;24.25;21.25;;;;;20.14;67.88;101034.41;4937666;28;45418;-85
2021/06/22 09:57:09;;;;;;;;;27.00;22.50;;;;;20.18;68.07;101043.91;4938951;28;47077;-86
2021/06/22 09:59:54;;;;;;;;;22.75;20.75;;;;;20.08;67.75;101037.44;4939256;28;46557;-85
2021/06/22 10:02:22;;;;;;;;;27.75;23.25;;;;;20.04;68.55;101036.81;4932130;28;45350;-85
2021/06/22 10:04:53;;;;;;;;;24.75;21.75;;;;;19.97;68.13;101040.88;4941458;28;45404;-86
2021/06/22 10:07:22;;;;;;;;;28.00;27.25;;;;;19.96;68.22;101042.69;4940931;28;45460;-85
2021/06/22 10:09:56;;;;;;;;;28.50;24.75;;;;;19.88;68.48;101039.66;4936934;28;46273;-86
2021/06/22 10:12:25;;;;;;;;;27.25;27.25;;;;;19.77;68.64;101051.94;4940259;28;46014;-86
2021/06/22 10:14:53;;;;;;;;;24.00;23.25;;;;;19.74;68.89;101053.94;4939338;28;45478;-86
2021/06/22 10:17:21;;;;;;;;;27.00;23.75;;;;;19.72;68.40;101053.19;4937661;28;45588;-86
2021/06/22 10:19:49;;;;;;;;;29.25;25.00;;;;;19.64;69.81;101056.38;4941338;28;45398;-86
2021/06/22 10:22:18;;;;;;;;;26.75;24.75;;;;;19.63;69.33;101068.03;4940686;28;45783;-85
2021/06/22 10:24:46;;;;;;;;;28.25;23.50;;;;;19.51;69.94;101059.00;4940096;28;45310;-87
2021/06/22 10:27:15;;;;;;;;;23.00;17.75;;;;;19.39;70.05;101061.53;4940890;28;45456;-86
2021/06/22 10:29:43;;;;;;;;;25.00;23.25;;;;;19.30;72.19;101076.31;4939233;28;45448;-85
2021/06/22 10:32:10;;;;;;;;;26.25;20.00;;;;;19.18;73.97;101082.44;4937425;28;45373;-83
2021/06/22 10:34:37;;;;;;;;;20.25;15.25;;;;;19.09;74.54;101089.16;4940877;28;45384;-85
2021/06/22 10:37:09;;;;;;;;;23.75;22.00;;;;;18.89;74.52;101093.94;4933179;28;45506;-84
2021/06/22 10:39:40;;;;;;;;;21.75;19.75;;;;;18.76;76.20;101099.22;4939525;28;45880;-83
2021/06/22 10:42:10;;;;;;;;;20.50;16.25;;;;;18.52;76.68;101094.47;4941001;28;45697;-82
2021/06/22 10:44:39;;;;;;;;;23.25;19.25;;;;;18.35;77.20;101093.66;4940226;28;45423;-77
2021/06/22 10:47:30;;;;;;;;;22.50;19.75;;;;;18.10;77.69;101101.28;4940396;28;45662;-77
2021/06/22 10:49:57;;;;;;;;;28.75;26.00;;;;;17.98;78.62;101116.16;4940904;28;45470;-77
2021/06/22 10:52:41;;;;;;;;;23.25;20.50;;;;;17.85;79.07;101125.81;4941259;28;45326;-77
2021/06/22 10:55:18;;;;;;;;;24.50;21.50;;;;;17.70;79.51;101123.09;4941814;28;45388;-77
2021/06/22 10:58:11;;;;;;;;;24.75;23.25;;;;;17.69;79.33;101141.78;4939219;28;45427;-77
2021/06/22 11:00:42;;;;;;;;;30.50;20.75;;;;;17.61;80.14;101160.81;4936729;28;45408;-77
2021/06/22 11:03:08;;;;;;;;;24.00;18.25;;;;;17.47;80.33;101159.78;4940775;28;45452;-77
2021/06/22 11:05:39;;;;;;;;;30.25;25.75;;;;;17.42;80.95;101175.13;4941161;28;45698;-77
2021/06/22 11:08:08;;;;;;;;;23.50;21.50;;;;;17.34;81.46;101193.28;4940518;28;45313;-77
2021/06/22 11:10:33;;;;;;;;;19.25;18.50;;;;;17.21;83.39;101191.31;4941135;28;46543;-77
2021/06/22 11:12:59;;;;;;;;;18.75;18.75;;;;;17.18;81.91;101181.72;4940834;28;45460;-77
2021/06/22 11:15:43;;;;;;;;;19.00;15.00;;;;;17.09;88.29;101190.13;4940918;28;45447;-77
2021/06/22 11:18:10;;;;;;;;;16.75;15.25;;;;;16.96;89.01;101174.84;4939024;28;47348;-77
2021/06/22 11:20:36;;;;;;;;;23.25;15.00;;;;;16.92;88.97;101169.78;4929610;28;45516;-77
2021/06/22 11:23:08;;;;;;;;;23.00;19.75;;;;;16.85;88.88;101169.25;4940732;28;45328;-78
2021/06/22 11:25:52;;;;;;;;;18.75;18.25;;;;;16.76;89.49;101162.66;4941404;28;45462;-78
2021/06/22 11:28:23;;;;;;;;;17.50;13.75;;;;;16.70;89.71;101160.31;4939377;28;45234;-77
2021/06/22 11:30:55;;;;;;;;;25.50;18.00;;;;;16.64;89.88;101158.84;4940649;28;46232;-80
2021/06/22 11:33:44;;;;;;;;;15.50;13.50;;;;;16.54;90.32;101153.16;4941033;28;45718;-80
2021/06/22 11:36:21;;;;;;;;;18.50;15.25;;;;;16.60;90.78;101170.53;4941658;28;45465;-80
2021/06/22 11:39:33;;;;;;;;;16.75;15.25;;;;;16.62;91.07;101185.44;4940385;28;45419;-79
2021/06/22 11:42:10;;;;;;;;;15.00;12.00;;;;;16.63;91.12;101186.31;4925446;28;45628;-77
2021/06/22 11:44:37;;;;;;;;;12.50;11.50;;;;;16.54;91.23;101190.31;4939929;28;45290;-77
2021/06/22 11:47:09;;;;;;;;;10.00;10.00;;;;;16.53;91.36;101188.56;4941022;28;45294;-77
2021/06/22 11:49:41;;;;;;;;;11.00;9.25;;;;;16.59;91.05;101190.94;4941391;28;45424;-77
2021/06/22 11:52:11;;;;;;;;;7.75;7.75;;;;;16.54;91.21;101192.97;4940282;28;46224;-77
2021/06/22 11:54:55;;;;;;;;;8.00;7.50;;;;;16.54;91.28;101201.75;4930866;28;45752;-76
2021/06/22 11:57:33;;;;;;;;;8.50;6.50;;;;;16.52;91.79;101202.75;4929222;28;45520;-76
2021/06/22 12:00:06;;;;;;;;;8.00;6.75;;;;;16.63;91.48;101192.47;4939162;28;45460;-76
2021/06/22 12:02:32;;;;;;;;;4.25;4.25;;;;;16.59;89.85;101190.06;4938128;28;46497;-76
2021/06/22 12:04:57;;;;;;;;;5.00;5.00;;;;;16.41;90.23;101188.28;4940113;28;45251;-76
2021/06/22 12:07:23;;;;;;;;;4.50;4.00;;;;;16.38;91.40;101179.59;4935435;28;45477;-76
2021/06/22 12:09:49;;;;;;;;;4.00;2.00;;;;;16.36;89.89;101179.69;4938352;28;45418;-77
2021/06/22 12:12:15;;;;;;;;;4.00;4.00;;;;;16.32;90.99;101186.09;4940058;28;46346;-76
2021/06/22 12:14:52;;;;;;;;;5.00;4.00;;;;;16.28;91.55;101177.41;4938918;28;45379;-76
2021/06/22 12:17:20;;;;;;;;;4.25;3.50;;;;;16.34;91.92;101186.00;4941239;28;45711;-75
2021/06/22 12:19:46;;;;;;;;;5.75;4.00;;;;;16.33;90.53;101194.88;4942027;28;47164;-74
2021/06/22 12:22:15;;;;;;;;;4.75;3.75;;;;;16.22;90.52;101188.34;4943199;28;45315;-74
2021/06/22 12:24:42;;;;;;;;;3.00;3.00;;;;;16.14;91.02;101191.38;4941871;28;45278;-74
2021/06/22 12:27:09;;;;;;;;;2.00;2.00;;;;;16.11;90.62;101207.44;4943125;28;45732;-74
2021/06/22 12:29:34;;;;;;;;;2.75;2.75;;;;;16.01;89.62;101204.34;4942544;28;45366;-72
2021/06/22 12:32:03;;;;;;;;;4.50;3.00;;;;;15.90;90.33;101211.97;4940822;28;47366;-74
2021/06/22 12:34:31;;;;;;;;;2.00;1.00;;;;;15.84;89.88;101215.75;4942688;28;45418;-73
2021/06/22 12:36:57;;;;;;;;;2.75;2.25;;;;;15.83;90.03;101214.03;4942467;28;45613;-76
2021/06/22 12:39:25;;;;;;;;;2.50;2.00;;;;;15.75;90.12;101214.41;4940699;28;46429;-76
2021/06/22 12:41:51;;;;;;;;;3.00;2.00;;;;;15.70;90.23;101230.53;4942571;28;45389;-75
2021/06/22 12:44:26;;;;;;;;;3.00;3.00;;;;;15.66;90.22;101243.97;4942067;28;45509;-75
2021/06/22 12:46:51;;;;;;;;;2.00;2.00;;;;;15.62;88.56;101243.28;4942576;28;45821;-75
2021/06/22 12:49:24;;;;;;;;;3.00;3.00;;;;;15.56;91.00;101239.09;4943352;28;45382;-75
2021/06/22 12:51:55;;;;;;;;;2.00;2.00;;;;;15.61;91.30;101252.13;4941630;28;45513;-75
2021/06/22 12:54:26;;;;;;;;;2.00;2.00;;;;;15.64;90.98;101258.16;4938358;28;45349;-75
2021/06/22 12:56:56;;;;;;;;;3.00;2.50;;;;;15.66;89.95;101254.56;4941685;28;45320;-75
2021/06/22 12:59:26;;;;;;;;;2.75;1.75;;;;;15.64;91.22;101254.66;4942113;28;45423;-75
2021/06/22 13:02:03;;;;;;;;;3.00;2.00;;;;;15.64;90.35;101262.59;4941111;28;46138;-75
2021/06/22 13:04:40;;;;;;;;;1.50;1.50;;;;;15.62;90.44;101264.47;4942187;28;45804;-75
2021/06/22 13:07:14;;;;;;;;;2.00;2.00;;;;;15.61;91.21;101266.25;4942253;28;45313;-75
2021/06/22 13:09:41;;;;;;;;;2.25;2.25;;;;;15.58;90.42;101276.97;4941810;28;45295;-75
2021/06/22 13:12:28;;;;;;;;;3.75;3.75;;;;;15.52;89.95;101278.16;4942212;28;45708;-75
2021/06/22 13:14:54;;;;;;;;;3.75;1.25;;;;;15.46;88.15;101280.22;4941331;28;45632;-75
2021/06/22 13:17:29;;;;;;;;;3.75;3.25;;;;;15.42;90.11;101279.47;4941943;28;45231;-75
2021/06/22 13:20:00;;;;;;;;;6.75;5.00;;;;;15.41;90.18;101277.75;4940909;28;45455;-75
2021/06/22 13:22:31;;;;;;;;;4.75;4.00;;;;;15.42;91.47;101284.78;4942156;28;45672;-75
2021/06/22 13:24:58;;;;;;;;;3.75;3.75;;;;;15.52;91.64;101290.53;4940460;28;45575;-75
2021/06/22 13:27:28;;;;;;;;;7.50;6.25;;;;;15.60;92.18;101299.00;4940030;28;45234;-75
2021/06/22 13:29:58;;;;;;;;;6.25;6.25;;;;;15.62;90.97;101290.97;4941638;28;45307;-75
2021/06/22 13:32:33;;;;;;;;;6.75;5.75;;;;;15.66;91.27;101302.25;4942278;28;45420;-75
2021/06/22 13:35:00;;;;;;;;;7.50;5.00;;;;;15.63;90.17;101306.78;4941058;28;45600;-75
2021/06/22 13:37:27;;;;;;;;;5.00;4.00;;;;;15.62;90.52;101304.22;4941313;28;45512;-75
2021/06/22 13:39:55;;;;;;;;;7.25;7.25;;;;;15.61;90.62;101310.44;4941675;28;45456;-75
2021/06/22 13:42:24;;;;;;;;;8.50;6.25;;;;;15.64;91.57;101311.16;4941381;28;45491;-75
2021/06/22 13:44:52;;;;;;;;;10.00;8.00;;;;;15.70;92.26;101309.16;4941137;28;45451;-75
2021/06/22 13:47:41;;;;;;;;;9.00;6.75;;;;;15.78;91.21;101308.81;4941701;28;45689;-75
2021/06/22 13:50:24;;;;;;;;;8.75;8.75;;;;;15.82;90.87;101302.44;4940354;28;47445;-75
2021/06/22 13:52:57;;;;;;;;;7.50;7.50;;;;;15.81;91.35;101311.31;4941122;28;46264;-75
2021/06/22 13:55:34;;;;;;;;;10.50;9.50;;;;;15.80;91.63;101306.97;4940548;28;45733;-75
2021/06/22 13:58:05;;;;;;;;;9.00;7.25;;;;;15.81;90.53;101304.22;4941763;28;45314;-74
2021/06/22 14:00:32;;;;;;;;;9.50;9.50;;;;;15.80;89.68;101309.59;4941692;28;45450;-74
2021/06/22 14:02:58;;;;;;;;;11.00;9.75;;;;;15.74;87.97;101316.91;4940537;28;46499;-74
2021/06/22 14:05:30;;;;;;;;;8.25;6.00;;;;;15.73;91.21;101293.97;4941409;28;45473;-75
2021/06/22 14:07:56;;;;;;;;;7.00;7.00;;;;;15.81;91.67;101301.56;4940587;28;45773;-74
2021/06/22 14:10:21;;;;;;;;;8.25;7.50;;;;;15.87;88.12;101311.03;4940617;28;45526;-75
2021/06/22 14:12:48;;;;;;;;;6.00;6.00;;;;;15.83;88.31;101315.59;4939520;28;45635;-74
2021/06/22 14:15:13;;;;;;;;;5.75;5.75;;;;;15.81;85.33;101316.59;4938397;28;45346;-74
2021/06/22 14:17:41;;;;;;;;;9.25;6.75;;;;;15.78;90.26;101308.81;4937890;28;45526;-74
2021/06/22 14:20:07;;;;;;;;;7.75;6.50;;;;;15.78;89.80;101300.88;4939553;28;46300;-74
2021/06/22 14:22:33;;;;;;;;;6.75;6.00;;;;;15.77;89.82;101304.44;4953050;28;48595;-74
2021/06/22 14:24:58;;;;;;;;;6.75;6.75;;;;;15.77;89.76;101312.38;4940829;28;45871;-74
2021/06/22 14:27:24;;;;;;;;;8.00;8.00;;;;;15.75;90.62;101307.16;4941256;28;45730;-74
2021/06/22 14:29:49;;;;;;;;;6.50;6.50;;;;;15.78;89.20;101319.41;4940420;28;45306;-74
2021/06/22 14:32:16;;;;;;;;;8.75;8.75;;;;;15.81;89.61;101324.56;4938779;28;47042;-74
2021/06/22 14:34:41;;;;;;;;;7.75;7.75;;;;;15.85;89.06;101328.81;4939867;28;45388;-74
2021/06/22 14:37:06;;;;;;;;;8.50;8.25;;;;;15.85;90.61;101326.16;4940313;28;45290;-74
2021/06/22 14:39:32;;;;;;;;;7.50;7.50;;;;;15.85;89.78;101321.69;4940419;28;45325;-74
2021/06/22 14:41:57;;;;;;;;;10.25;9.75;;;;;15.90;90.20;101329.44;4940155;28;45467;-74
2021/06/22 14:44:22;;;;;;;;;9.00;8.75;;;;;15.93;89.48;101334.59;4940316;28;45469;-74
2021/06/22 14:46:48;;;;;;;;;13.00;9.25;;;;;15.96;90.60;101325.66;4939751;28;45340;-74
2021/06/22 14:49:13;;;;;;;;;7.25;6.25;;;;;16.01;89.34;101330.72;4941486;28;45582;-74
2021/06/22 14:51:38;;;;;;;;;6.75;6.25;;;;;16.05;91.04;101335.84;4939572;28;45643;-74
2021/06/22 14:54:04;;;;;;;;;10.00;10.00;;;;;16.14;89.02;101342.53;4938671;28;45347;-74
2021/06/22 14:56:29;;;;;;;;;8.00;6.00;;;;;16.23;89.92;101340.34;4941402;28;45283;-74
2021/06/22 14:58:55;;;;;;;;;8.00;8.00;;;;;16.31;91.73;101347.03;4939904;28;45572;-74
2021/06/22 15:01:20;;;;;;;;;9.50;8.25;;;;;16.44;91.77;101345.56;4940274;28;45455;-74
2021/06/22 15:03:46;;;;;;;;;10.00;10.00;;;;;16.49;88.38;101354.19;4939364;28;45666;-74
2021/06/22 15:06:14;;;;;;;;;10.00;9.75;;;;;16.42;87.69;101362.41;4940058;28;45201;-74
2021/06/22 15:08:39;;;;;;;;;7.50;7.50;;;;;16.37;88.95;101356.47;4940645;28;45731;-74
2021/06/22 15:11:05;;;;;;;;;11.00;9.25;;;;;16.32;89.62;101358.50;4940602;28;45427;-74
2021/06/22 15:13:30;;;;;;;;;9.50;8.75;;;;;16.31;90.76;101368.25;4939081;28;45412;-74
2021/06/22 15:15:55;;;;;;;;;7.50;7.50;;;;;16.30;89.23;101360.34;4940769;28;45336;-74
2021/06/22 15:18:21;;;;;;;;;12.00;9.00;;;;;16.27;87.74;101373.78;4940103;28;45356;-74
2021/06/22 15:20:46;;;;;;;;;8.75;8.25;;;;;16.24;85.31;101371.25;4938627;28;46172;-74
2021/06/22 15:23:12;;;;;;;;;8.25;8.25;;;;;16.22;86.03;101368.69;4939619;28;45520;-74
2021/06/22 15:25:42;;;;;;;;;9.00;8.75;;;;;16.17;89.14;101366.22;4940484;28;45495;-74
2021/06/22 15:28:07;;;;;;;;;9.25;7.00;;;;;16.18;90.58;101372.41;4940020;28;45293;-74
2021/06/22 15:30:33;;;;;;;;;10.50;10.00;;;;;16.18;87.64;101383.00;4939764;28;45639;-74
2021/06/22 15:32:58;;;;;;;;;10.50;9.00;;;;;16.19;89.68;101377.66;4939908;28;45302;-74
2021/06/22 15:35:24;;;;;;;;;9.50;9.50;;;;;16.21;90.37;101377.56;4938720;28;45678;-74
2021/06/22 15:37:51;;;;;;;;;11.00;9.50;;;;;16.20;87.97;101379.34;4938939;28;45523;-74
2021/06/22 15:40:19;;;;;;;;;9.50;8.00;;;;;16.16;88.24;101385.75;4939182;28;45758;-74
2021/06/22 15:42:45;;;;;;;;;8.00;8.00;;;;;16.16;90.29;101400.78;4939452;28;45594;-74
2021/06/22 15:45:14;;;;;;;;;10.75;8.75;;;;;16.17;90.69;101403.34;4939959;28;45234;-74
2021/06/22 15:47:42;;;;;;;;;8.00;7.25;;;;;16.17;88.50;101413.13;4940106;28;45625;-74
2021/06/22 15:50:08;;;;;;;;;11.00;9.50;;;;;16.14;90.18;101418.56;4938066;28;47268;-74
2021/06/22 15:52:34;;;;;;;;;6.75;5.75;;;;;16.14;89.20;101424.72;4935811;28;45520;-74
2021/06/22 15:55:00;;;;;;;;;9.25;9.25;;;;;16.16;88.95;101427.31;4943705;28;45413;-74
2021/06/22 15:57:26;;;;;;;;;12.25;10.75;;;;;16.15;90.04;101423.78;4943280;28;45472;-74
2021/06/22 15:59:52;;;;;;;;;10.25;6.75;;;;;16.17;89.11;101423.72;4940748;28;45722;-76
2021/06/22 16:02:17;;;;;;;;;9.75;9.00;;;;;16.18;89.03;101426.31;4943035;28;45313;-75
2021/06/22 16:04:44;;;;;;;;;8.00;7.50;;;;;16.18;90.28;101430.75;4943053;28;45378;-75
2021/06/22 16:07:13;;;;;;;;;7.25;7.25;;;;;16.24;88.34;101432.25;4942582;28;45485;-75
2021/06/22 16:09:39;;;;;;;;;9.00;8.00;;;;;16.28;89.88;101433.84;4942997;28;45379;-75
2021/06/22 16:12:05;;;;;;;;;6.25;6.25;;;;;16.29;90.07;101432.91;4943008;28;45599;-75
2021/06/22 16:14:30;;;;;;;;;8.00;8.00;;;;;16.29;90.35;101439.09;4941104;28;45410;-77
2021/06/22 16:16:56;;;;;;;;;6.00;6.00;;;;;16.30;89.94;101435.47;4942750;28;45564;-77
2021/06/22 16:19:21;;;;;;;;;7.25;6.50;;;;;16.28;86.85;101442.66;4957817;28;47150;-76
2021/06/22 16:21:47;;;;;;;;;11.00;8.75;;;;;16.14;85.27;101440.66;4942314;28;45629;-76
2021/06/22 16:24:12;;;;;;;;;7.75;7.75;;;;;16.04;85.60;101441.94;4942373;28;45552;-76
2021/06/22 16:26:38;;;;;;;;;9.00;9.00;;;;;15.95;88.61;101444.06;4942732;28;45313;-77
2021/06/22 16:29:03;;;;;;;;;8.75;6.75;;;;;15.90;89.36;101435.47;4941589;28;46491;-77
2021/06/22 16:31:29;;;;;;;;;10.00;9.50;;;;;15.88;88.92;101439.13;4942332;28;45503;-77
2021/06/22 16:33:54;;;;;;;;;10.50;10.00;;;;;15.89;88.37;101436.41;4942477;28;45594;-76
2021/06/22 16:36:20;;;;;;;;;11.50;9.75;;;;;15.90;89.71;101442.59;4940679;28;45853;-76
2021/06/22 16:38:45;;;;;;;;;9.75;9.50;;;;;15.92;89.89;101448.66;4942044;28;45807;-77
2021/06/22 16:41:10;;;;;;;;;6.25;5.75;;;;;15.89;86.59;101441.72;4942291;28;46722;-77
2021/06/22 16:43:36;;;;;;;;;8.00;6.25;;;;;15.87;87.21;101448.88;4941441;28;45427;-76
2021/06/22 16:46:01;;;;;;;;;8.75;7.75;;;;;15.82;87.89;101441.13;4941890;28;46161;-77
2021/06/22 16:48:26;;;;;;;;;13.25;10.25;;;;;15.81;89.92;101449.13;4943672;28;46091;-77
2021/06/22 16:50:52;;;;;;;;;9.00;8.50;;;;;15.83;89.64;101457.88;4943135;28;45478;-77
2021/06/22 16:53:18;;;;;;;;;11.25;9.75;;;;;15.79;88.45;101465.09;4942238;28;45310;-77
2021/06/22 16:55:43;;;;;;;;;9.75;9.75;;;;;15.79;88.91;101464.25;4942704;28;45270;-77
2021/06/22 16:58:09;;;;;;;;;13.00;11.50;;;;;15.79;89.44;101473.06;4938713;28;48277;-77
2021/06/22 17:00:39;;;;;;;;;9.00;8.50;;;;;15.79;90.01;101470.41;4943188;28;45181;-77
2021/06/22 17:03:06;;;;;;;;;10.50;10.00;;;;;15.83;88.69;101479.06;4943327;28;45428;-77
2021/06/22 17:05:32;;;;;;;;;10.50;10.50;;;;;15.85;89.41;101478.09;4941295;28;45552;-77
2021/06/22 17:07:57;;;;;;;;;8.50;8.50;;;;;15.85;85.20;101477.25;4942436;28;45499;-77
2021/06/22 17:10:24;;;;;;;;;13.00;11.00;;;;;15.81;84.23;101475.63;4943178;28;45362;-77
2021/06/22 17:12:52;;;;;;;;;14.00;14.00;;;;;15.79;83.19;101483.66;4942985;28;45363;-77
2021/06/22 17:15:19;;;;;;;;;11.25;9.75;;;;;15.71;85.94;101481.34;4940398;28;45284;-77
2021/06/22 17:17:45;;;;;;;;;12.00;9.50;;;;;15.73;88.70;101486.56;4933432;28;46330;-77
2021/06/22 17:20:13;;;;;;;;;11.25;11.25;;;;;15.69;88.56;101480.53;4942871;28;45448;-77
2021/06/22 17:22:39;;;;;;;;;8.75;8.75;;;;;15.75;87.84;101482.91;4943261;28;45468;-77
2021/06/22 17:25:06;;;;;;;;;14.75;11.00;;;;;15.79;88.89;101488.09;4942835;28;45293;-77
2021/06/22 17:27:32;;;;;;;;;8.50;7.25;;;;;15.76;81.12;101483.78;4941103;28;47225;-77
2021/06/22 17:29:57;;;;;;;;;12.00;11.00;;;;;15.77;82.60;101484.66;4941941;28;45757;-77